createdAt,value
2018-06-13T00:01:06.542Z,16.78
2018-06-13T00:02:06.562Z,16.75
2018-06-13T00:03:59.492Z,16.82
2018-06-13T00:04:59.493Z,16.79
2018-06-13T00:06:52.422Z,16.75
2018-06-13T00:07:52.424Z,16.71
2018-06-13T00:09:45.331Z,16.68
2018-06-13T00:10:45.351Z,16.63
2018-06-13T00:12:38.280Z,16.66
2018-06-13T00:13:38.282Z,16.60
2018-06-13T00:15:31.190Z,16.61
2018-06-13T00:16:31.210Z,16.61
2018-06-13T00:18:24.139Z,16.58
2018-06-13T00:19:24.143Z,16.61
2018-06-13T00:21:17.076Z,16.61
2018-06-13T00:22:17.070Z,16.58
2018-06-13T00:24:09.982Z,16.50
2018-06-13T00:25:10.005Z,16.52
2018-06-13T00:27:02.932Z,16.50
2018-06-13T00:28:02.933Z,16.52
2018-06-13T00:29:55.847Z,16.49
2018-06-13T00:30:55.869Z,16.43
2018-06-13T00:32:48.795Z,16.46
2018-06-13T00:33:48.800Z,16.48
2018-06-13T00:35:41.710Z,16.60
2018-06-13T00:36:41.731Z,16.48
2018-06-13T00:38:34.659Z,16.52
2018-06-13T00:39:34.657Z,16.52
2018-06-13T00:41:27.567Z,16.63
2018-06-13T00:42:27.589Z,16.64
2018-06-13T00:44:20.517Z,16.45
2018-06-13T00:45:20.520Z,16.50
2018-06-13T00:47:13.452Z,16.52
2018-06-13T00:48:13.448Z,16.42
2018-06-13T00:50:06.358Z,16.50
2018-06-13T00:51:06.377Z,16.42
2018-06-13T00:52:59.309Z,16.46
2018-06-13T00:53:59.311Z,16.48
2018-06-13T00:55:52.222Z,16.42
2018-06-13T00:56:52.244Z,16.39
2018-06-13T00:58:45.171Z,16.38
2018-06-13T00:59:45.173Z,16.43
2018-06-13T01:01:38.081Z,16.39
2018-06-13T01:02:38.100Z,16.33
2018-06-13T01:04:31.030Z,16.30
2018-06-13T01:05:31.031Z,16.30
2018-06-13T01:07:24.127Z,16.34
2018-06-13T01:08:24.114Z,16.38
2018-06-13T01:10:17.027Z,16.39
2018-06-13T01:11:17.047Z,16.30
2018-06-13T01:13:09.977Z,16.42
2018-06-13T01:14:09.977Z,16.41
2018-06-13T01:16:02.885Z,16.28
2018-06-13T01:17:02.907Z,16.42
2018-06-13T01:18:55.834Z,16.34
2018-06-13T01:19:55.835Z,16.39
2018-06-13T01:21:48.749Z,16.35
2018-06-13T01:22:48.772Z,16.24
2018-06-13T01:24:41.701Z,16.35
2018-06-13T01:25:41.702Z,16.31
2018-06-13T01:27:34.618Z,16.25
2018-06-13T01:28:34.643Z,16.23
2018-06-13T01:30:27.574Z,16.20
2018-06-13T01:31:27.572Z,16.17
2018-06-13T01:33:20.480Z,16.23
2018-06-13T01:34:20.500Z,16.21
2018-06-13T01:36:13.436Z,16.20
2018-06-13T01:37:13.431Z,16.15
2018-06-13T01:39:06.365Z,16.25
2018-06-13T01:40:06.365Z,16.15
2018-06-13T01:41:59.289Z,16.21
2018-06-13T01:42:59.308Z,16.09
2018-06-13T01:44:52.237Z,16.07
2018-06-13T01:45:52.250Z,16.02
2018-06-13T01:47:45.147Z,15.92
2018-06-13T01:48:45.166Z,15.90
2018-06-13T01:50:38.093Z,16.00
2018-06-13T01:51:38.095Z,15.97
2018-06-13T01:53:31.005Z,16.00
2018-06-13T01:54:31.026Z,15.96
2018-06-13T01:56:23.953Z,15.96
2018-06-13T01:57:23.952Z,15.92
2018-06-13T01:59:16.879Z,15.87
2018-06-13T02:00:16.881Z,15.87
2018-06-13T02:02:09.789Z,15.89
2018-06-13T02:03:09.816Z,16.02
2018-06-13T02:05:02.738Z,15.96
2018-06-13T02:06:02.736Z,15.90
2018-06-13T02:07:55.649Z,16.04
2018-06-13T02:08:55.670Z,16.00
2018-06-13T02:10:48.601Z,16.08
2018-06-13T02:11:48.599Z,16.08
2018-06-13T02:13:41.513Z,16.00
2018-06-13T02:14:41.530Z,16.04
2018-06-13T02:16:34.459Z,16.02
2018-06-13T02:17:34.459Z,15.94
2018-06-13T02:19:27.391Z,15.75
2018-06-13T02:20:27.390Z,15.74
2018-06-13T02:22:20.304Z,15.86
2018-06-13T02:23:20.324Z,15.78
2018-06-13T02:25:13.255Z,15.82
2018-06-13T02:26:13.255Z,15.80
2018-06-13T02:28:06.167Z,15.82
2018-06-13T02:29:06.184Z,15.74
2018-06-13T02:30:59.118Z,15.74
2018-06-13T02:31:59.125Z,15.84
2018-06-13T02:33:52.025Z,15.74
2018-06-13T02:34:52.047Z,15.71
2018-06-13T02:36:44.975Z,15.71
2018-06-13T02:37:44.976Z,15.74
2018-06-13T02:39:37.881Z,15.72
2018-06-13T02:40:37.904Z,15.78
2018-06-13T02:42:30.832Z,15.82
2018-06-13T02:43:30.832Z,15.82
2018-06-13T02:45:23.760Z,15.89
2018-06-13T02:46:23.762Z,15.75
2018-06-13T02:48:16.670Z,15.78
2018-06-13T02:49:16.691Z,15.67
2018-06-13T02:51:09.620Z,15.68
2018-06-13T02:52:09.618Z,15.75
2018-06-13T02:54:02.527Z,15.78
2018-06-13T02:55:02.548Z,15.82
2018-06-13T02:56:55.485Z,15.78
2018-06-13T02:57:55.474Z,15.82
2018-06-13T02:59:48.385Z,15.71
2018-06-13T03:00:48.404Z,15.71
2018-06-13T03:02:41.334Z,15.69
2018-06-13T03:03:41.349Z,15.75
2018-06-13T03:05:34.276Z,15.64
2018-06-13T03:06:34.269Z,15.54
2018-06-13T03:08:27.176Z,15.44
2018-06-13T03:09:27.202Z,15.44
2018-06-13T03:11:20.130Z,15.35
2018-06-13T03:12:20.132Z,15.39
2018-06-13T03:14:13.037Z,15.49
2018-06-13T03:15:13.059Z,15.47
2018-06-13T03:17:05.995Z,15.39
2018-06-13T03:18:05.992Z,15.39
2018-06-13T03:19:58.902Z,15.31
2018-06-13T03:20:58.937Z,15.27
2018-06-13T03:22:51.849Z,15.13
2018-06-13T03:23:51.851Z,15.13
2018-06-13T03:25:44.761Z,15.20
2018-06-13T03:26:44.781Z,15.10
2018-06-13T03:28:37.708Z,15.17
2018-06-13T03:29:37.706Z,15.13
2018-06-13T03:31:30.638Z,15.19
2018-06-13T03:32:30.637Z,15.21
2018-06-13T03:34:23.545Z,15.21
2018-06-13T03:35:23.564Z,15.20
2018-06-13T03:37:16.494Z,15.20
2018-06-13T03:38:16.493Z,15.11
2018-06-13T03:40:09.404Z,15.11
2018-06-13T03:41:09.428Z,15.19
2018-06-13T03:43:02.357Z,15.07
2018-06-13T03:44:02.353Z,15.21
2018-06-13T03:45:55.266Z,15.21
2018-06-13T03:46:55.286Z,15.16
2018-06-13T03:48:48.214Z,15.20
2018-06-13T03:49:48.214Z,15.14
2018-06-13T03:51:41.142Z,15.20
2018-06-13T03:52:41.146Z,15.17
2018-06-13T03:54:34.052Z,15.20
2018-06-13T03:55:34.074Z,15.19
2018-06-13T03:57:27.005Z,15.28
2018-06-13T03:58:27.004Z,15.21
2018-06-13T04:00:19.914Z,15.35
2018-06-13T04:01:19.940Z,15.34
2018-06-13T04:03:12.861Z,15.44
2018-06-13T04:04:12.861Z,15.35
2018-06-13T04:06:05.771Z,15.47
2018-06-13T04:07:05.795Z,15.41
2018-06-13T04:08:58.717Z,15.35
2018-06-13T04:09:58.717Z,15.35
2018-06-13T04:11:51.626Z,15.34
2018-06-13T04:12:51.646Z,15.36
2018-06-13T04:14:44.575Z,15.36
2018-06-13T04:15:44.577Z,15.38
2018-06-13T04:17:37.602Z,15.41
2018-06-13T04:18:37.508Z,15.49
2018-06-13T04:20:30.421Z,15.41
2018-06-13T04:21:30.442Z,15.39
2018-06-13T04:23:23.372Z,15.38
2018-06-13T04:24:23.373Z,15.36
2018-06-13T04:26:16.284Z,15.41
2018-06-13T04:27:16.308Z,15.39
2018-06-13T04:29:09.242Z,15.47
2018-06-13T04:30:09.233Z,15.59
2018-06-13T04:32:02.145Z,15.54
2018-06-13T04:33:02.162Z,15.57
2018-06-13T04:34:55.098Z,15.49
2018-06-13T04:35:55.106Z,15.36
2018-06-13T04:37:48.026Z,15.50
2018-06-13T04:38:48.025Z,15.43
2018-06-13T04:40:40.933Z,15.39
2018-06-13T04:41:40.955Z,15.46
2018-06-13T04:43:33.890Z,15.36
2018-06-13T04:44:33.887Z,15.38
2018-06-13T04:46:26.971Z,15.39
2018-06-13T04:47:26.997Z,15.41
2018-06-13T04:49:19.923Z,15.50
2018-06-13T04:50:19.960Z,15.39
2018-06-13T04:52:12.835Z,15.47
2018-06-13T04:53:12.856Z,15.44
2018-06-13T04:55:05.805Z,15.49
2018-06-13T04:56:05.786Z,15.28
2018-06-13T04:57:58.699Z,15.23
2018-06-13T04:58:58.719Z,15.17
2018-06-13T05:00:51.648Z,15.09
2018-06-13T05:01:51.649Z,15.09
2018-06-13T05:03:44.576Z,15.14
2018-06-13T05:04:44.576Z,15.11
2018-06-13T05:06:37.982Z,15.20
2018-06-13T05:07:38.002Z,15.20
2018-06-13T05:09:31.137Z,15.28
2018-06-13T05:10:31.134Z,15.20
2018-06-13T05:12:24.039Z,15.41
2018-06-13T05:13:24.059Z,15.39
2018-06-13T05:15:16.992Z,15.49
2018-06-13T05:16:16.991Z,15.62
2018-06-13T05:18:09.900Z,15.71
2018-06-13T05:19:09.922Z,15.78
2018-06-13T05:21:02.853Z,15.80
2018-06-13T05:22:02.853Z,15.80
2018-06-13T05:23:55.783Z,15.80
2018-06-13T05:24:55.786Z,15.76
2018-06-13T05:26:48.692Z,15.72
2018-06-13T05:27:48.712Z,15.68
2018-06-13T05:29:41.641Z,15.75
2018-06-13T05:30:41.643Z,15.78
2018-06-13T05:32:34.551Z,15.84
2018-06-13T05:33:34.572Z,15.82
2018-06-13T05:35:27.504Z,15.76
2018-06-13T05:36:27.501Z,15.78
2018-06-13T05:38:20.410Z,15.69
2018-06-13T05:39:20.434Z,15.69
2018-06-13T05:41:13.363Z,15.57
2018-06-13T05:42:13.361Z,15.59
2018-06-13T05:44:06.278Z,15.68
2018-06-13T05:45:06.304Z,15.67
2018-06-13T05:46:59.233Z,15.62
2018-06-13T05:47:59.232Z,15.62
2018-06-13T05:49:52.162Z,15.59
2018-06-13T05:50:52.161Z,15.46
2018-06-13T05:52:45.070Z,15.54
2018-06-13T05:53:45.093Z,15.49
2018-06-13T05:55:38.020Z,15.54
2018-06-13T05:56:38.021Z,15.56
2018-06-13T05:58:30.929Z,15.56
2018-06-13T05:59:30.952Z,15.47
2018-06-13T06:01:23.886Z,15.46
2018-06-13T06:02:23.883Z,15.57
2018-06-13T06:04:16.934Z,15.46
2018-06-13T06:05:16.956Z,15.54
2018-06-13T06:07:09.886Z,15.51
2018-06-13T06:08:09.888Z,15.56
2018-06-13T06:10:02.800Z,15.62
2018-06-13T06:11:02.818Z,15.56
2018-06-13T06:12:55.747Z,15.65
2018-06-13T06:13:55.749Z,15.75
2018-06-13T06:15:48.803Z,15.78
2018-06-13T06:16:48.805Z,15.78
2018-06-13T06:18:41.718Z,15.78
2018-06-13T06:19:41.739Z,15.86
2018-06-13T06:21:34.666Z,15.92
2018-06-13T06:22:34.670Z,15.76
2018-06-13T06:24:27.581Z,15.76
2018-06-13T06:25:27.604Z,15.69
2018-06-13T06:27:20.534Z,15.82
2018-06-13T06:28:20.533Z,15.92
2018-06-13T06:30:13.444Z,15.94
2018-06-13T06:31:13.465Z,16.05
2018-06-13T06:33:06.397Z,16.17
2018-06-13T06:34:06.397Z,16.23
2018-06-13T06:35:59.329Z,16.24
2018-06-13T06:36:59.366Z,16.35
2018-06-13T06:38:52.239Z,16.57
2018-06-13T06:39:52.266Z,16.21
2018-06-13T06:41:45.199Z,16.45
2018-06-13T06:42:45.198Z,16.56
2018-06-13T06:44:38.114Z,16.48
2018-06-13T06:45:38.134Z,16.43
2018-06-13T06:47:31.065Z,16.50
2018-06-13T06:48:31.067Z,16.39
2018-06-13T06:50:23.983Z,16.52
2018-06-13T06:51:24.004Z,16.60
2018-06-13T06:53:16.932Z,16.63
2018-06-13T06:54:16.933Z,16.61
2018-06-13T06:56:09.848Z,16.76
2018-06-13T06:57:09.873Z,16.85
2018-06-13T06:59:02.808Z,16.96
2018-06-13T07:00:02.807Z,16.97
2018-06-13T07:01:55.722Z,17.25
2018-06-13T07:02:55.744Z,17.30
2018-06-13T07:04:48.679Z,17.54
2018-06-13T07:05:48.682Z,17.71
2018-06-13T07:07:41.615Z,17.70
2018-06-13T07:08:41.616Z,17.66
2018-06-13T07:10:34.533Z,17.59
2018-06-13T07:11:34.553Z,17.68
2018-06-13T07:13:27.485Z,17.74
2018-06-13T07:14:27.488Z,17.72
2018-06-13T07:16:20.404Z,17.74
2018-06-13T07:17:20.433Z,17.68
2018-06-13T07:19:13.373Z,17.64
2018-06-13T07:20:13.372Z,17.44
2018-06-13T07:22:06.282Z,17.48
2018-06-13T07:23:06.360Z,17.38
2018-06-13T07:24:59.242Z,17.40
2018-06-13T07:25:59.241Z,17.16
2018-06-13T07:27:52.154Z,16.98
2018-06-13T07:28:52.178Z,16.79
2018-06-13T07:30:45.114Z,16.76
2018-06-13T07:31:45.121Z,16.76
2018-06-13T07:33:38.108Z,16.48
2018-06-13T07:34:38.051Z,16.57
2018-06-13T07:36:30.969Z,16.39
2018-06-13T07:37:31.002Z,16.41
2018-06-13T07:39:23.924Z,16.15
2018-06-13T07:40:23.925Z,16.21
2018-06-13T07:42:16.835Z,16.20
2018-06-13T07:43:16.856Z,16.24
2018-06-13T07:45:09.789Z,16.17
2018-06-13T07:46:09.791Z,16.21
2018-06-13T07:48:02.704Z,16.20
2018-06-13T07:49:02.731Z,16.11
2018-06-13T07:50:55.854Z,16.42
2018-06-13T07:51:55.859Z,16.42
2018-06-13T07:53:48.792Z,16.63
2018-06-13T07:54:48.788Z,16.78
2018-06-13T07:56:41.704Z,16.94
2018-06-13T07:57:41.726Z,16.93
2018-06-13T07:59:34.660Z,16.82
2018-06-13T08:00:34.661Z,16.83
2018-06-13T08:02:27.571Z,17.03
2018-06-13T08:03:27.594Z,17.12
2018-06-13T08:05:20.529Z,17.22
2018-06-13T08:06:20.539Z,17.37
2018-06-13T08:08:13.449Z,17.28
2018-06-13T08:09:13.477Z,17.48
2018-06-13T08:11:06.408Z,17.58
2018-06-13T08:12:06.417Z,17.75
2018-06-13T08:13:59.330Z,17.78
2018-06-13T08:14:59.356Z,17.95
2018-06-13T08:16:52.328Z,17.89
2018-06-13T08:17:52.292Z,17.84
2018-06-13T08:19:45.227Z,17.64
2018-06-13T08:20:45.231Z,17.68
2018-06-13T08:22:38.145Z,17.46
2018-06-13T08:23:38.172Z,17.18
2018-06-13T08:25:31.106Z,17.16
2018-06-13T08:26:31.113Z,17.11
2018-06-13T08:28:24.023Z,17.01
2018-06-13T08:29:24.045Z,17.11
2018-06-13T08:31:16.977Z,17.04
2018-06-13T08:32:16.981Z,17.08
2018-06-13T08:34:09.891Z,17.07
2018-06-13T08:35:09.915Z,17.19
2018-06-13T08:37:02.846Z,17.33
2018-06-13T08:38:02.848Z,17.26
2018-06-13T08:39:55.800Z,17.26
2018-06-13T08:40:55.783Z,17.12
2018-06-13T08:42:48.721Z,17.33
2018-06-13T08:43:48.726Z,17.44
2018-06-13T08:45:41.651Z,17.44
2018-06-13T08:46:41.655Z,17.64
2018-06-13T08:48:34.600Z,17.72
2018-06-13T08:49:34.589Z,17.78
2018-06-13T08:51:27.524Z,17.86
2018-06-13T08:52:27.523Z,17.86
2018-06-13T08:54:20.438Z,17.95
2018-06-13T08:55:20.460Z,18.02
2018-06-13T08:57:13.398Z,18.18
2018-06-13T08:58:13.400Z,18.26
2018-06-13T09:00:06.312Z,18.23
2018-06-13T09:01:06.336Z,18.27
2018-06-13T09:02:59.272Z,18.41
2018-06-13T09:03:59.278Z,18.48
2018-06-13T09:05:52.209Z,18.52
2018-06-13T09:06:52.218Z,18.42
2018-06-13T09:08:45.130Z,18.30
2018-06-13T09:09:45.156Z,18.25
2018-06-13T09:11:38.089Z,18.26
2018-06-13T09:12:38.094Z,18.20
2018-06-13T09:14:31.008Z,18.02
2018-06-13T09:15:31.028Z,18.08
2018-06-13T09:17:23.972Z,17.99
2018-06-13T09:18:23.965Z,17.93
2018-06-13T09:20:16.883Z,17.75
2018-06-13T09:21:16.900Z,17.74
2018-06-13T09:23:09.835Z,17.81
2018-06-13T09:24:09.838Z,17.93
2018-06-13T09:26:02.754Z,17.92
2018-06-13T09:27:02.781Z,18.00
2018-06-13T09:28:55.711Z,18.18
2018-06-13T09:29:55.713Z,18.32
2018-06-13T09:31:48.657Z,18.48
2018-06-13T09:32:48.653Z,18.57
2018-06-13T09:34:41.570Z,18.76
2018-06-13T09:35:41.597Z,18.80
2018-06-13T09:37:34.547Z,18.80
2018-06-13T09:38:34.532Z,18.90
2018-06-13T09:40:27.447Z,18.80
2018-06-13T09:41:27.476Z,18.82
2018-06-13T09:43:20.405Z,18.58
2018-06-13T09:44:20.410Z,18.58
2018-06-13T09:46:13.326Z,18.47
2018-06-13T09:47:15.130Z,18.57
2018-06-13T09:49:06.293Z,18.58
2018-06-13T09:50:06.318Z,18.58
2018-06-13T09:51:59.219Z,18.63
2018-06-13T09:52:59.241Z,18.69
2018-06-13T09:54:52.223Z,18.94
2018-06-13T09:55:52.185Z,18.98
2018-06-13T09:57:45.127Z,18.94
2018-06-13T09:58:45.129Z,18.99
2018-06-13T10:00:38.052Z,18.95
2018-06-13T10:01:38.090Z,19.02
2018-06-13T10:03:31.013Z,19.11
2018-06-13T10:04:31.057Z,19.22
2018-06-13T10:06:23.937Z,19.26
2018-06-13T10:07:23.965Z,19.23
2018-06-13T10:09:16.900Z,19.23
2018-06-13T10:10:16.910Z,19.26
2018-06-13T10:12:09.824Z,19.33
2018-06-13T10:13:09.853Z,19.44
2018-06-13T10:15:02.788Z,19.61
2018-06-13T10:16:02.797Z,19.54
2018-06-13T10:17:55.731Z,19.71
2018-06-13T10:18:55.738Z,19.71
2018-06-13T10:20:48.658Z,19.76
2018-06-13T10:21:48.684Z,19.68
2018-06-13T10:23:41.627Z,19.68
2018-06-13T10:24:41.630Z,19.50
2018-06-13T10:26:34.604Z,19.55
2018-06-13T10:27:34.575Z,19.56
2018-06-13T10:29:27.517Z,19.47
2018-06-13T10:30:27.518Z,19.46
2018-06-13T10:32:20.436Z,19.23
2018-06-13T10:33:20.462Z,19.22
2018-06-13T10:35:13.400Z,19.25
2018-06-13T10:36:13.409Z,18.98
2018-06-13T10:38:06.320Z,18.80
2018-06-13T10:39:06.349Z,18.78
2018-06-13T10:40:59.283Z,18.87
2018-06-13T10:41:59.290Z,18.95
2018-06-13T10:43:52.222Z,18.91
2018-06-13T10:44:52.231Z,18.84
2018-06-13T10:46:45.141Z,18.72
2018-06-13T10:47:45.163Z,18.55
2018-06-13T10:49:38.103Z,18.37
2018-06-13T10:50:38.114Z,18.23
2018-06-13T10:52:31.031Z,18.12
2018-06-13T10:53:31.054Z,18.14
2018-06-13T10:55:24.000Z,18.12
2018-06-13T10:56:24.000Z,18.23
2018-06-13T10:58:16.917Z,18.08
2018-06-13T10:59:16.943Z,18.20
2018-06-13T11:01:09.885Z,18.05
2018-06-13T11:02:09.886Z,18.29
2018-06-13T11:04:02.804Z,18.35
2018-06-13T11:05:02.833Z,18.32
2018-06-13T11:06:55.764Z,18.44
2018-06-13T11:07:55.772Z,18.48
2018-06-13T11:09:48.705Z,18.60
2018-06-13T11:10:48.707Z,18.80
2018-06-13T11:12:41.620Z,18.99
2018-06-13T11:13:41.645Z,19.06
2018-06-13T11:15:34.582Z,19.22
2018-06-13T11:16:34.590Z,19.25
2018-06-13T11:18:27.510Z,19.36
2018-06-13T11:19:27.536Z,19.31
2018-06-13T11:21:20.481Z,19.54
2018-06-13T11:22:20.483Z,19.69
2018-06-13T11:24:13.403Z,20.05
2018-06-13T11:25:13.429Z,20.16
2018-06-13T11:27:06.377Z,20.36
2018-06-13T11:28:06.381Z,20.39
2018-06-13T11:29:59.303Z,20.72
2018-06-13T11:30:59.329Z,20.76
2018-06-13T11:32:52.264Z,20.94
2018-06-13T11:33:52.274Z,21.12
2018-06-13T11:35:45.230Z,21.31
2018-06-13T11:36:45.218Z,21.43
2018-06-13T11:38:38.138Z,21.52
2018-06-13T11:39:38.167Z,21.69
2018-06-13T11:41:31.174Z,21.71
2018-06-13T11:42:31.115Z,21.61
2018-06-13T11:44:24.038Z,21.61
2018-06-13T11:45:24.063Z,21.50
2018-06-13T11:47:17.006Z,21.32
2018-06-13T11:48:17.013Z,21.43
2018-06-13T11:50:09.932Z,21.53
2018-06-13T11:51:09.961Z,21.40
2018-06-13T11:53:02.907Z,21.43
2018-06-13T11:54:02.907Z,21.46
2018-06-13T11:55:55.830Z,21.49
2018-06-13T11:56:55.856Z,21.46
2018-06-13T11:58:48.804Z,21.40
2018-06-13T11:59:48.810Z,21.43
2018-06-13T12:01:41.813Z,21.29
2018-06-13T12:02:41.766Z,21.19
2018-06-13T12:04:34.687Z,20.99
2018-06-13T12:05:34.712Z,21.01
2018-06-13T12:07:27.652Z,20.98
2018-06-13T12:08:27.659Z,21.14
2018-06-13T12:10:20.580Z,20.87
2018-06-13T12:11:20.608Z,20.92
2018-06-13T12:13:13.547Z,20.98
2018-06-13T12:14:13.554Z,20.92
2018-06-13T12:16:06.477Z,20.97
2018-06-13T12:17:06.506Z,20.72
2018-06-13T12:18:59.446Z,20.42
2018-06-13T12:19:59.452Z,20.39
2018-06-13T12:21:52.397Z,20.16
2018-06-13T12:22:52.408Z,20.17
2018-06-13T12:24:45.315Z,19.99
2018-06-13T12:25:45.341Z,20.06
2018-06-13T12:27:38.315Z,20.05
2018-06-13T12:28:38.300Z,19.99
2018-06-13T12:30:31.204Z,19.91
2018-06-13T12:31:31.231Z,19.99
2018-06-13T12:33:24.165Z,20.10
2018-06-13T12:34:24.176Z,20.14
2018-06-13T12:36:17.089Z,20.17
2018-06-13T12:37:17.117Z,20.31
2018-06-13T12:39:10.060Z,20.47
2018-06-13T12:40:10.077Z,20.41
2018-06-13T12:42:02.986Z,20.52
2018-06-13T12:43:03.011Z,20.57
2018-06-13T12:44:55.959Z,20.87
2018-06-13T12:45:55.960Z,20.72
2018-06-13T12:47:48.907Z,20.70
2018-06-13T12:48:48.908Z,20.57
2018-06-13T12:50:41.836Z,20.55
2018-06-13T12:51:41.863Z,20.52
2018-06-13T12:53:34.810Z,20.58
2018-06-13T12:54:34.811Z,20.59
2018-06-13T12:56:27.752Z,20.51
2018-06-13T12:57:27.765Z,20.51
2018-06-13T12:59:20.711Z,20.29
2018-06-13T13:00:20.715Z,20.13
2018-06-13T13:02:13.639Z,19.86
2018-06-13T13:03:13.669Z,19.76
2018-06-13T13:05:06.613Z,19.59
2018-06-13T13:06:06.615Z,19.48
2018-06-13T13:07:59.536Z,19.54
2018-06-13T13:08:59.564Z,19.41
2018-06-13T13:10:52.499Z,19.28
2018-06-13T13:11:52.508Z,19.26
2018-06-13T13:13:45.456Z,19.21
2018-06-13T13:14:45.455Z,19.00
2018-06-13T13:16:38.361Z,19.26
2018-06-13T13:17:38.391Z,19.28
2018-06-13T13:19:31.326Z,19.36
2018-06-13T13:20:31.334Z,19.41
2018-06-13T13:22:24.248Z,19.46
2018-06-13T13:23:24.273Z,19.54
2018-06-13T13:25:17.204Z,19.69
2018-06-13T13:26:17.211Z,19.84
2018-06-13T13:28:10.133Z,20.14
2018-06-13T13:29:10.157Z,20.31
2018-06-13T13:31:03.091Z,20.43
2018-06-13T13:32:03.100Z,20.59
2018-06-13T13:33:56.017Z,20.76
2018-06-13T13:34:56.046Z,20.92
2018-06-13T13:36:48.980Z,21.13
2018-06-13T13:37:48.990Z,21.14
2018-06-13T13:39:41.901Z,21.25
2018-06-13T13:40:41.934Z,21.24
2018-06-13T13:42:34.867Z,21.31
2018-06-13T13:43:34.874Z,21.29
2018-06-13T13:45:27.831Z,21.43
2018-06-13T13:46:27.819Z,21.28
2018-06-13T13:48:20.738Z,21.22
2018-06-13T13:49:20.766Z,21.22
2018-06-13T13:51:13.697Z,20.74
2018-06-13T13:52:13.720Z,20.70
2018-06-13T13:54:06.695Z,20.51
2018-06-13T13:55:06.653Z,20.47
2018-06-13T13:56:59.655Z,20.42
2018-06-13T13:57:59.645Z,20.29
2018-06-13T13:59:52.545Z,20.26
2018-06-13T14:00:52.579Z,20.13
2018-06-13T14:02:45.481Z,20.06
2018-06-13T14:03:45.487Z,20.03
2018-06-13T14:05:38.421Z,19.88
2018-06-13T14:06:38.431Z,19.95
2018-06-13T14:08:31.348Z,19.94
2018-06-13T14:09:31.377Z,19.87
2018-06-13T14:11:24.312Z,19.81
2018-06-13T14:12:24.320Z,19.66
2018-06-13T14:14:17.294Z,19.58
2018-06-13T14:15:17.260Z,19.56
2018-06-13T14:17:10.191Z,19.68
2018-06-13T14:18:10.202Z,19.51
2018-06-13T14:20:03.116Z,19.61
2018-06-13T14:21:03.141Z,19.73
2018-06-13T14:22:56.082Z,19.92
2018-06-13T14:23:56.086Z,20.01
2018-06-13T14:25:49.004Z,19.98
2018-06-13T14:26:49.055Z,20.13
2018-06-13T14:28:41.974Z,20.14
2018-06-13T14:29:41.997Z,20.31
2018-06-13T14:31:34.920Z,20.54
2018-06-13T14:32:34.931Z,20.61
2018-06-13T14:34:27.850Z,20.80
2018-06-13T14:35:27.878Z,20.89
2018-06-13T14:37:20.872Z,21.19
2018-06-13T14:38:20.823Z,21.27
2018-06-13T14:40:13.742Z,21.34
2018-06-13T14:41:13.773Z,21.32
2018-06-13T14:43:06.708Z,21.38
2018-06-13T14:44:06.722Z,21.35
2018-06-13T14:45:59.631Z,21.16
2018-06-13T14:46:59.660Z,21.27
2018-06-13T14:48:52.604Z,21.32
2018-06-13T14:49:52.606Z,21.40
2018-06-13T14:51:45.626Z,21.34
2018-06-13T14:52:45.551Z,21.28
2018-06-13T14:54:38.465Z,21.28
2018-06-13T14:55:38.530Z,21.27
2018-06-13T14:57:31.429Z,21.27
2018-06-13T14:58:31.439Z,21.27
2018-06-13T15:00:24.355Z,21.25
2018-06-13T15:01:24.384Z,21.22
2018-06-13T15:03:17.327Z,21.25
2018-06-13T15:04:17.335Z,21.21
2018-06-13T15:06:10.256Z,20.97
2018-06-13T15:07:10.282Z,20.84
2018-06-13T15:09:03.299Z,20.79
2018-06-13T15:10:03.227Z,20.76
2018-06-13T15:11:56.263Z,20.80
2018-06-13T15:12:56.207Z,20.84
2018-06-13T15:14:49.095Z,20.84
2018-06-13T15:15:49.120Z,20.89
2018-06-13T15:17:42.056Z,20.95
2018-06-13T15:18:42.065Z,21.14
2018-06-13T15:20:34.986Z,21.19
2018-06-13T15:21:35.015Z,21.22
2018-06-13T15:23:27.955Z,21.29
2018-06-13T15:24:27.968Z,21.42
2018-06-13T15:26:20.877Z,21.69
2018-06-13T15:27:20.946Z,21.72
2018-06-13T15:29:13.843Z,21.82
2018-06-13T15:30:13.851Z,21.83
2018-06-13T15:32:06.768Z,21.79
2018-06-13T15:33:06.795Z,21.68
2018-06-13T15:34:59.735Z,21.42
2018-06-13T15:35:59.743Z,21.49
2018-06-13T15:37:52.867Z,21.28
2018-06-13T15:38:52.819Z,21.25
2018-06-13T15:40:45.735Z,21.32
2018-06-13T15:41:45.764Z,21.46
2018-06-13T15:43:38.700Z,21.58
2018-06-13T15:44:38.709Z,21.46
2018-06-13T15:46:31.627Z,21.42
2018-06-13T15:47:31.655Z,21.35
2018-06-13T15:49:24.632Z,21.29
2018-06-13T15:50:24.680Z,21.27
2018-06-13T15:52:17.515Z,21.29
2018-06-13T15:53:17.547Z,21.24
2018-06-13T15:55:10.497Z,21.03
2018-06-13T15:56:10.498Z,21.17
2018-06-13T15:58:03.420Z,21.21
2018-06-13T15:59:03.488Z,21.19
2018-06-13T16:00:56.386Z,21.10
2018-06-13T16:01:56.447Z,21.12
2018-06-13T16:03:49.325Z,21.19
2018-06-13T16:04:49.335Z,20.97
2018-06-13T16:06:42.249Z,20.88
2018-06-13T16:07:42.279Z,20.74
2018-06-13T16:09:35.221Z,20.74
2018-06-13T16:10:35.221Z,20.70
2018-06-13T16:12:28.136Z,20.58
2018-06-13T16:13:28.166Z,20.61
2018-06-13T16:15:21.104Z,20.55
2018-06-13T16:16:21.104Z,20.48
2018-06-13T16:18:14.022Z,20.36
2018-06-13T16:19:14.051Z,20.39
2018-06-13T16:21:06.986Z,20.26
2018-06-13T16:22:06.999Z,20.24
2018-06-13T16:23:59.913Z,20.13
2018-06-13T16:24:59.934Z,20.13
2018-06-13T16:26:52.980Z,20.08
2018-06-13T16:27:52.887Z,20.11
2018-06-13T16:29:45.810Z,20.14
2018-06-13T16:30:45.835Z,20.14
2018-06-13T16:32:38.772Z,20.13
2018-06-13T16:33:38.778Z,20.33
2018-06-13T16:35:32.451Z,20.21
2018-06-13T16:36:32.450Z,20.10
2018-06-13T16:38:25.369Z,20.18
2018-06-13T16:39:25.398Z,20.31
2018-06-13T16:41:18.334Z,20.13
2018-06-13T16:42:18.335Z,20.23
2018-06-13T16:44:11.256Z,20.17
2018-06-13T16:45:11.280Z,20.16
2018-06-13T16:47:04.215Z,20.14
2018-06-13T16:48:04.225Z,20.08
2018-06-13T16:49:57.136Z,19.87
2018-06-13T16:50:57.160Z,19.86
2018-06-13T16:52:50.097Z,19.81
2018-06-13T16:53:50.118Z,19.76
2018-06-13T16:55:43.081Z,19.88
2018-06-13T16:56:43.079Z,19.86
2018-06-13T16:58:36.012Z,19.71
2018-06-13T16:59:36.029Z,19.84
2018-06-13T17:01:29.484Z,19.71
2018-06-13T17:02:29.539Z,19.88
2018-06-13T17:04:22.439Z,19.91
2018-06-13T17:05:22.480Z,19.88
2018-06-13T17:07:15.427Z,19.73
2018-06-13T17:08:15.430Z,19.68
2018-06-13T17:10:08.380Z,19.54
2018-06-13T17:11:08.412Z,19.56
2018-06-13T17:13:01.342Z,19.55
2018-06-13T17:14:01.350Z,19.54
2018-06-13T17:15:54.257Z,19.69
2018-06-13T17:16:54.292Z,19.76
2018-06-13T17:18:47.235Z,19.65
2018-06-13T17:19:47.234Z,19.61
2018-06-13T17:21:40.181Z,19.61
2018-06-13T17:22:40.172Z,19.66
2018-06-13T17:24:33.079Z,19.86
2018-06-13T17:25:33.103Z,19.83
2018-06-13T17:27:26.040Z,19.86
2018-06-13T17:28:26.041Z,19.92
2018-06-13T17:30:18.961Z,19.88
2018-06-13T17:31:18.991Z,19.98
2018-06-13T17:33:11.926Z,19.96
2018-06-13T17:34:11.932Z,19.95
2018-06-13T17:36:04.842Z,19.78
2018-06-13T17:37:04.866Z,19.84
2018-06-13T17:38:57.811Z,19.83
2018-06-13T17:39:57.811Z,19.68
2018-06-13T17:41:50.733Z,19.65
2018-06-13T17:42:50.758Z,19.76
2018-06-13T17:44:43.694Z,19.86
2018-06-13T17:45:43.704Z,19.87
2018-06-13T17:47:36.616Z,20.03
2018-06-13T17:48:36.639Z,20.16
2018-06-13T17:50:29.577Z,20.38
2018-06-13T17:51:29.577Z,20.43
2018-06-13T17:53:22.516Z,20.64
2018-06-13T17:54:22.525Z,20.54
2018-06-13T17:56:15.968Z,20.58
2018-06-13T17:57:15.966Z,20.39
2018-06-13T17:59:08.978Z,20.38
2018-06-13T18:00:08.933Z,20.36
2018-06-13T18:02:01.825Z,20.31
2018-06-13T18:03:01.854Z,20.14
2018-06-13T18:04:54.801Z,20.14
2018-06-13T18:05:54.798Z,20.02
2018-06-13T18:07:47.717Z,20.14
2018-06-13T18:08:47.744Z,20.14
2018-06-13T18:10:40.673Z,20.18
2018-06-13T18:11:40.680Z,20.16
2018-06-13T18:13:33.604Z,20.14
2018-06-13T18:14:33.625Z,20.17
2018-06-13T18:16:26.556Z,20.13
2018-06-13T18:17:26.605Z,20.29
2018-06-13T18:19:19.518Z,20.13
2018-06-13T18:20:19.506Z,20.17
2018-06-13T18:22:12.444Z,20.05
2018-06-13T18:23:12.460Z,20.08
2018-06-13T18:25:05.382Z,19.95
2018-06-13T18:26:05.384Z,19.98
2018-06-13T18:27:58.300Z,19.76
2018-06-13T18:28:58.324Z,19.87
2018-06-13T18:30:51.257Z,19.73
2018-06-13T18:31:51.261Z,19.71
2018-06-13T18:33:44.178Z,19.73